sensor_id;sensor_type;location;lat;lon;timestamp;temperature;humidity
25208;DHT22;13153;52.316;21.166;2023-04-24T00:00:28;15.10;65.90
25208;DHT22;13153;52.316;21.166;2023-04-24T00:02:54;15.00;66.10
25208;DHT22;13153;52.316;21.166;2023-04-24T00:05:22;15.00;66.30
25208;DHT22;13153;52.316;21.166;2023-04-24T00:07:48;15.00;66.40
25208;DHT22;13153;52.316;21.166;2023-04-24T00:10:18;15.00;66.60
25208;DHT22;13153;52.316;21.166;2023-04-24T00:12:44;15.00;66.70
25208;DHT22;13153;52.316;21.166;2023-04-24T00:15:10;15.00;66.90
25208;DHT22;13153;52.316;21.166;2023-04-24T00:17:36;14.90;67.10
25208;DHT22;13153;52.316;21.166;2023-04-24T00:20:03;14.90;67.30
25208;DHT22;13153;52.316;21.166;2023-04-24T00:22:30;14.90;67.50
25208;DHT22;13153;52.316;21.166;2023-04-24T00:24:57;14.80;67.70
25208;DHT22;13153;52.316;21.166;2023-04-24T00:27:23;14.80;68.10
25208;DHT22;13153;52.316;21.166;2023-04-24T00:29:49;14.70;68.30
25208;DHT22;13153;52.316;21.166;2023-04-24T00:32:15;14.80;68.50
25208;DHT22;13153;52.316;21.166;2023-04-24T00:34:41;14.70;68.80
25208;DHT22;13153;52.316;21.166;2023-04-24T00:37:08;14.70;68.90
25208;DHT22;13153;52.316;21.166;2023-04-24T00:39:33;14.70;69.00
25208;DHT22;13153;52.316;21.166;2023-04-24T00:41:59;14.70;69.50
25208;DHT22;13153;52.316;21.166;2023-04-24T00:44:26;14.60;69.40
25208;DHT22;13153;52.316;21.166;2023-04-24T00:46:53;14.60;70.10
25208;DHT22;13153;52.316;21.166;2023-04-24T00:49:20;14.60;70.60
25208;DHT22;13153;52.316;21.166;2023-04-24T00:51:47;14.50;71.20
25208;DHT22;13153;52.316;21.166;2023-04-24T00:54:14;14.50;70.70
25208;DHT22;13153;52.316;21.166;2023-04-24T00:56:41;14.40;70.70
25208;DHT22;13153;52.316;21.166;2023-04-24T00:59:08;14.40;71.40
25208;DHT22;13153;52.316;21.166;2023-04-24T01:01:35;14.40;71.50
25208;DHT22;13153;52.316;21.166;2023-04-24T01:04:01;14.30;72.60
25208;DHT22;13153;52.316;21.166;2023-04-24T01:06:28;14.30;72.70
25208;DHT22;13153;52.316;21.166;2023-04-24T01:08:57;14.20;72.50
25208;DHT22;13153;52.316;21.166;2023-04-24T01:11:24;14.20;71.80
25208;DHT22;13153;52.316;21.166;2023-04-24T01:13:51;14.20;71.90
25208;DHT22;13153;52.316;21.166;2023-04-24T01:16:17;14.10;72.10
25208;DHT22;13153;52.316;21.166;2023-04-24T01:18:46;14.10;72.50
25208;DHT22;13153;52.316;21.166;2023-04-24T01:21:14;14.10;73.00
25208;DHT22;13153;52.316;21.166;2023-04-24T01:23:45;14.10;72.60
25208;DHT22;13153;52.316;21.166;2023-04-24T01:26:13;14.10;72.70
25208;DHT22;13153;52.316;21.166;2023-04-24T01:28:40;14.00;72.80
25208;DHT22;13153;52.316;21.166;2023-04-24T01:31:07;14.00;73.80
25208;DHT22;13153;52.316;21.166;2023-04-24T01:33:33;14.00;74.90
25208;DHT22;13153;52.316;21.166;2023-04-24T01:35:59;14.00;74.00
25208;DHT22;13153;52.316;21.166;2023-04-24T01:38:25;13.90;74.90
25208;DHT22;13153;52.316;21.166;2023-04-24T01:40:51;13.90;74.70
25208;DHT22;13153;52.316;21.166;2023-04-24T01:43:18;13.90;74.70
25208;DHT22;13153;52.316;21.166;2023-04-24T01:45:44;13.80;74.30
25208;DHT22;13153;52.316;21.166;2023-04-24T01:48:11;13.80;74.00
25208;DHT22;13153;52.316;21.166;2023-04-24T01:50:38;13.80;75.30
25208;DHT22;13153;52.316;21.166;2023-04-24T01:53:04;13.80;75.60
25208;DHT22;13153;52.316;21.166;2023-04-24T01:55:30;13.80;75.30
25208;DHT22;13153;52.316;21.166;2023-04-24T01:57:56;13.80;74.90
25208;DHT22;13153;52.316;21.166;2023-04-24T02:00:25;13.70;75.30
25208;DHT22;13153;52.316;21.166;2023-04-24T02:02:50;13.70;76.00
25208;DHT22;13153;52.316;21.166;2023-04-24T02:05:16;13.70;75.70
25208;DHT22;13153;52.316;21.166;2023-04-24T02:07:42;13.60;75.10
25208;DHT22;13153;52.316;21.166;2023-04-24T02:10:08;13.60;75.00
25208;DHT22;13153;52.316;21.166;2023-04-24T02:12:34;13.60;75.30
25208;DHT22;13153;52.316;21.166;2023-04-24T02:15:00;13.50;75.40
25208;DHT22;13153;52.316;21.166;2023-04-24T02:17:26;13.40;75.70
25208;DHT22;13153;52.316;21.166;2023-04-24T02:19:52;13.40;76.10
25208;DHT22;13153;52.316;21.166;2023-04-24T02:22:18;13.40;76.30
25208;DHT22;13153;52.316;21.166;2023-04-24T02:24:44;13.40;76.50
25208;DHT22;13153;52.316;21.166;2023-04-24T02:27:09;13.30;76.60
25208;DHT22;13153;52.316;21.166;2023-04-24T02:29:36;13.20;76.90
25208;DHT22;13153;52.316;21.166;2023-04-24T02:32:02;13.20;77.50
25208;DHT22;13153;52.316;21.166;2023-04-24T02:34:28;13.10;77.70
25208;DHT22;13153;52.316;21.166;2023-04-24T02:36:54;13.10;77.80
25208;DHT22;13153;52.316;21.166;2023-04-24T02:39:20;13.10;78.10
25208;DHT22;13153;52.316;21.166;2023-04-24T02:41:46;13.00;78.40
25208;DHT22;13153;52.316;21.166;2023-04-24T02:44:11;13.00;78.40
25208;DHT22;13153;52.316;21.166;2023-04-24T02:46:37;12.90;78.70
25208;DHT22;13153;52.316;21.166;2023-04-24T02:49:03;12.90;79.00
25208;DHT22;13153;52.316;21.166;2023-04-24T02:51:29;12.90;80.10
25208;DHT22;13153;52.316;21.166;2023-04-24T02:53:55;12.80;79.30
25208;DHT22;13153;52.316;21.166;2023-04-24T02:56:21;12.80;80.30
25208;DHT22;13153;52.316;21.166;2023-04-24T02:58:46;12.90;81.70
25208;DHT22;13153;52.316;21.166;2023-04-24T03:01:12;12.90;81.90
25208;DHT22;13153;52.316;21.166;2023-04-24T03:03:39;12.90;82.50
25208;DHT22;13153;52.316;21.166;2023-04-24T03:06:05;12.90;81.90
25208;DHT22;13153;52.316;21.166;2023-04-24T03:08:33;12.90;82.40
25208;DHT22;13153;52.316;21.166;2023-04-24T03:10:59;12.90;83.80
25208;DHT22;13153;52.316;21.166;2023-04-24T03:13:25;12.90;84.20
25208;DHT22;13153;52.316;21.166;2023-04-24T03:15:51;12.80;84.10
25208;DHT22;13153;52.316;21.166;2023-04-24T03:18:17;12.80;84.20
25208;DHT22;13153;52.316;21.166;2023-04-24T03:20:45;12.80;84.70
25208;DHT22;13153;52.316;21.166;2023-04-24T03:23:11;12.80;85.30
25208;DHT22;13153;52.316;21.166;2023-04-24T03:25:37;12.80;85.80
25208;DHT22;13153;52.316;21.166;2023-04-24T03:28:03;12.80;86.00
25208;DHT22;13153;52.316;21.166;2023-04-24T03:30:28;12.80;87.10
25208;DHT22;13153;52.316;21.166;2023-04-24T03:32:54;12.80;87.90
25208;DHT22;13153;52.316;21.166;2023-04-24T03:35:20;12.80;92.30
25208;DHT22;13153;52.316;21.166;2023-04-24T03:37:47;12.80;92.90
25208;DHT22;13153;52.316;21.166;2023-04-24T03:40:13;12.80;87.70
25208;DHT22;13153;52.316;21.166;2023-04-24T03:42:38;12.90;88.00
25208;DHT22;13153;52.316;21.166;2023-04-24T03:45:05;12.90;87.30
25208;DHT22;13153;52.316;21.166;2023-04-24T03:47:31;13.00;87.60
25208;DHT22;13153;52.316;21.166;2023-04-24T03:49:57;13.10;87.70
25208;DHT22;13153;52.316;21.166;2023-04-24T03:52:23;13.20;87.70
25208;DHT22;13153;52.316;21.166;2023-04-24T03:54:48;13.20;86.90
25208;DHT22;13153;52.316;21.166;2023-04-24T03:57:14;13.30;86.50
25208;DHT22;13153;52.316;21.166;2023-04-24T03:59:40;13.40;86.10
25208;DHT22;13153;52.316;21.166;2023-04-24T04:02:06;13.50;85.20
25208;DHT22;13153;52.316;21.166;2023-04-24T04:04:31;13.70;84.80
25208;DHT22;13153;52.316;21.166;2023-04-24T04:06:57;13.90;84.10
25208;DHT22;13153;52.316;21.166;2023-04-24T04:09:26;14.10;83.20
25208;DHT22;13153;52.316;21.166;2023-04-24T04:11:52;14.30;82.50
25208;DHT22;13153;52.316;21.166;2023-04-24T04:14:18;14.40;82.40
25208;DHT22;13153;52.316;21.166;2023-04-24T04:16:44;14.30;82.00
25208;DHT22;13153;52.316;21.166;2023-04-24T04:19:10;14.20;82.00
25208;DHT22;13153;52.316;21.166;2023-04-24T04:21:36;14.10;82.70
25208;DHT22;13153;52.316;21.166;2023-04-24T04:24:02;14.00;82.90
25208;DHT22;13153;52.316;21.166;2023-04-24T04:26:27;13.90;83.80
25208;DHT22;13153;52.316;21.166;2023-04-24T04:28:53;13.80;83.90
25208;DHT22;13153;52.316;21.166;2023-04-24T04:31:20;14.00;84.30
25208;DHT22;13153;52.316;21.166;2023-04-24T04:33:46;14.30;84.00
25208;DHT22;13153;52.316;21.166;2023-04-24T04:36:12;14.70;82.50
25208;DHT22;13153;52.316;21.166;2023-04-24T04:38:37;15.10;81.20
25208;DHT22;13153;52.316;21.166;2023-04-24T04:41:03;15.50;80.10
25208;DHT22;13153;52.316;21.166;2023-04-24T04:43:29;15.90;78.90
25208;DHT22;13153;52.316;21.166;2023-04-24T04:45:57;16.20;77.50
25208;DHT22;13153;52.316;21.166;2023-04-24T04:48:23;16.60;76.30
25208;DHT22;13153;52.316;21.166;2023-04-24T04:50:49;17.00;76.00
25208;DHT22;13153;52.316;21.166;2023-04-24T04:53:15;17.40;73.90
25208;DHT22;13153;52.316;21.166;2023-04-24T04:55:41;17.70;72.90
25208;DHT22;13153;52.316;21.166;2023-04-24T04:58:07;18.00;71.90
25208;DHT22;13153;52.316;21.166;2023-04-24T05:00:33;18.30;70.90
25208;DHT22;13153;52.316;21.166;2023-04-24T05:03:01;18.70;69.80
25208;DHT22;13153;52.316;21.166;2023-04-24T05:05:28;19.10;68.70
25208;DHT22;13153;52.316;21.166;2023-04-24T05:07:54;19.60;67.10
25208;DHT22;13153;52.316;21.166;2023-04-24T05:10:19;20.10;65.50
25208;DHT22;13153;52.316;21.166;2023-04-24T05:12:45;20.70;64.20
25208;DHT22;13153;52.316;21.166;2023-04-24T05:15:11;21.20;61.90
25208;DHT22;13153;52.316;21.166;2023-04-24T05:17:37;21.90;60.40
25208;DHT22;13153;52.316;21.166;2023-04-24T05:20:03;22.60;59.00
25208;DHT22;13153;52.316;21.166;2023-04-24T05:22:32;23.30;57.20
25208;DHT22;13153;52.316;21.166;2023-04-24T05:24:58;24.20;55.80
25208;DHT22;13153;52.316;21.166;2023-04-24T05:27:24;25.00;54.10
25208;DHT22;13153;52.316;21.166;2023-04-24T05:29:50;25.60;53.10
25208;DHT22;13153;52.316;21.166;2023-04-24T05:32:16;26.20;51.50
25208;DHT22;13153;52.316;21.166;2023-04-24T05:34:42;26.70;50.10
25208;DHT22;13153;52.316;21.166;2023-04-24T05:37:08;27.30;49.40
25208;DHT22;13153;52.316;21.166;2023-04-24T05:39:35;27.90;48.40
25208;DHT22;13153;52.316;21.166;2023-04-24T05:42:02;28.40;47.40
25208;DHT22;13153;52.316;21.166;2023-04-24T05:44:28;28.90;46.80
25208;DHT22;13153;52.316;21.166;2023-04-24T05:46:54;29.40;46.70
25208;DHT22;13153;52.316;21.166;2023-04-24T05:49:21;29.90;45.30
25208;DHT22;13153;52.316;21.166;2023-04-24T05:51:47;30.20;44.40
25208;DHT22;13153;52.316;21.166;2023-04-24T05:54:13;30.30;44.10
25208;DHT22;13153;52.316;21.166;2023-04-24T05:56:39;30.20;44.10
25208;DHT22;13153;52.316;21.166;2023-04-24T05:59:06;30.30;43.80
25208;DHT22;13153;52.316;21.166;2023-04-24T06:01:33;30.40;43.60
25208;DHT22;13153;52.316;21.166;2023-04-24T06:03:59;30.90;43.20
25208;DHT22;13153;52.316;21.166;2023-04-24T06:06:25;31.40;43.00
25208;DHT22;13153;52.316;21.166;2023-04-24T06:08:51;31.90;41.70
25208;DHT22;13153;52.316;21.166;2023-04-24T06:11:17;32.40;41.00
25208;DHT22;13153;52.316;21.166;2023-04-24T06:13:42;32.70;40.50
25208;DHT22;13153;52.316;21.166;2023-04-24T06:16:08;32.80;40.10
25208;DHT22;13153;52.316;21.166;2023-04-24T06:18:34;32.90;39.70
25208;DHT22;13153;52.316;21.166;2023-04-24T06:21:00;33.00;40.10
25208;DHT22;13153;52.316;21.166;2023-04-24T06:23:26;33.10;39.90
25208;DHT22;13153;52.316;21.166;2023-04-24T06:25:51;33.40;39.60
25208;DHT22;13153;52.316;21.166;2023-04-24T06:28:17;33.60;39.80
25208;DHT22;13153;52.316;21.166;2023-04-24T06:30:43;33.70;39.00
25208;DHT22;13153;52.316;21.166;2023-04-24T06:33:09;33.80;39.10
25208;DHT22;13153;52.316;21.166;2023-04-24T06:35:36;33.90;39.10
25208;DHT22;13153;52.316;21.166;2023-04-24T06:38:03;34.10;38.60
25208;DHT22;13153;52.316;21.166;2023-04-24T06:40:29;34.30;38.40
25208;DHT22;13153;52.316;21.166;2023-04-24T06:42:55;34.50;39.10
25208;DHT22;13153;52.316;21.166;2023-04-24T06:45:21;34.60;38.10
25208;DHT22;13153;52.316;21.166;2023-04-24T06:47:47;34.70;37.50
25208;DHT22;13153;52.316;21.166;2023-04-24T06:50:13;34.80;37.80
25208;DHT22;13153;52.316;21.166;2023-04-24T06:52:38;34.80;37.30
25208;DHT22;13153;52.316;21.166;2023-04-24T06:55:05;34.80;37.80
25208;DHT22;13153;52.316;21.166;2023-04-24T06:57:31;34.50;38.00
25208;DHT22;13153;52.316;21.166;2023-04-24T06:59:57;34.50;38.10
25208;DHT22;13153;52.316;21.166;2023-04-24T07:02:24;34.50;38.20
25208;DHT22;13153;52.316;21.166;2023-04-24T07:04:50;34.30;37.80
25208;DHT22;13153;52.316;21.166;2023-04-24T07:07:16;34.20;38.40
25208;DHT22;13153;52.316;21.166;2023-04-24T07:09:42;34.20;37.60
25208;DHT22;13153;52.316;21.166;2023-04-24T07:12:11;34.30;37.30
25208;DHT22;13153;52.316;21.166;2023-04-24T07:14:37;34.00;38.00
25208;DHT22;13153;52.316;21.166;2023-04-24T07:17:04;34.10;38.10
25208;DHT22;13153;52.316;21.166;2023-04-24T07:19:31;34.30;38.30
25208;DHT22;13153;52.316;21.166;2023-04-24T07:21:58;34.40;37.50
25208;DHT22;13153;52.316;21.166;2023-04-24T07:24:25;34.40;38.50
25208;DHT22;13153;52.316;21.166;2023-04-24T07:26:52;34.40;37.40
25208;DHT22;13153;52.316;21.166;2023-04-24T07:29:20;34.60;38.20
25208;DHT22;13153;52.316;21.166;2023-04-24T07:31:46;34.40;38.20
25208;DHT22;13153;52.316;21.166;2023-04-24T07:34:12;33.70;37.70
25208;DHT22;13153;52.316;21.166;2023-04-24T07:36:38;33.30;38.80
25208;DHT22;13153;52.316;21.166;2023-04-24T07:39:04;33.10;38.40
25208;DHT22;13153;52.316;21.166;2023-04-24T07:41:31;33.00;38.80
25208;DHT22;13153;52.316;21.166;2023-04-24T07:43:57;32.20;38.50
25208;DHT22;13153;52.316;21.166;2023-04-24T07:46:24;31.10;39.80
25208;DHT22;13153;52.316;21.166;2023-04-24T07:48:50;29.50;40.90
25208;DHT22;13153;52.316;21.166;2023-04-24T07:51:17;28.20;43.30
25208;DHT22;13153;52.316;21.166;2023-04-24T07:53:43;27.30;44.20
25208;DHT22;13153;52.316;21.166;2023-04-24T07:56:09;26.70;46.00
25208;DHT22;13153;52.316;21.166;2023-04-24T07:58:35;26.40;45.30
25208;DHT22;13153;52.316;21.166;2023-04-24T08:01:01;26.20;45.90
25208;DHT22;13153;52.316;21.166;2023-04-24T08:03:27;26.10;46.00
25208;DHT22;13153;52.316;21.166;2023-04-24T08:05:52;26.00;46.90
25208;DHT22;13153;52.316;21.166;2023-04-24T08:08:21;25.50;47.00
25208;DHT22;13153;52.316;21.166;2023-04-24T08:10:48;24.90;47.90
25208;DHT22;13153;52.316;21.166;2023-04-24T08:13:15;24.20;50.40
25208;DHT22;13153;52.316;21.166;2023-04-24T08:15:41;23.90;51.20
25208;DHT22;13153;52.316;21.166;2023-04-24T08:18:07;23.80;51.50
25208;DHT22;13153;52.316;21.166;2023-04-24T08:20:32;23.80;52.70
25208;DHT22;13153;52.316;21.166;2023-04-24T08:22:58;24.00;50.80
25208;DHT22;13153;52.316;21.166;2023-04-24T08:25:24;24.20;50.50
25208;DHT22;13153;52.316;21.166;2023-04-24T08:27:50;24.30;50.70
25208;DHT22;13153;52.316;21.166;2023-04-24T08:30:17;24.40;49.80
25208;DHT22;13153;52.316;21.166;2023-04-24T08:32:43;24.40;49.30
25208;DHT22;13153;52.316;21.166;2023-04-24T08:35:09;24.40;51.60
25208;DHT22;13153;52.316;21.166;2023-04-24T08:37:36;24.50;49.40
25208;DHT22;13153;52.316;21.166;2023-04-24T08:40:13;24.40;50.50
25208;DHT22;13153;52.316;21.166;2023-04-24T08:42:42;24.40;52.80
25208;DHT22;13153;52.316;21.166;2023-04-24T08:45:11;24.40;52.60
25208;DHT22;13153;52.316;21.166;2023-04-24T08:47:41;24.40;54.50
25208;DHT22;13153;52.316;21.166;2023-04-24T08:50:09;24.50;53.50
25208;DHT22;13153;52.316;21.166;2023-04-24T08:52:36;24.70;52.40
25208;DHT22;13153;52.316;21.166;2023-04-24T08:55:02;24.90;51.90
25208;DHT22;13153;52.316;21.166;2023-04-24T08:57:28;25.10;50.50
25208;DHT22;13153;52.316;21.166;2023-04-24T08:59:56;25.30;50.90
25208;DHT22;13153;52.316;21.166;2023-04-24T09:02:24;25.50;50.20
25208;DHT22;13153;52.316;21.166;2023-04-24T09:04:51;25.50;49.30
25208;DHT22;13153;52.316;21.166;2023-04-24T09:07:19;25.40;48.20
25208;DHT22;13153;52.316;21.166;2023-04-24T09:09:48;25.00;48.20
25208;DHT22;13153;52.316;21.166;2023-04-24T09:12:16;24.70;49.70
25208;DHT22;13153;52.316;21.166;2023-04-24T09:14:42;24.50;49.20
25208;DHT22;13153;52.316;21.166;2023-04-24T09:17:11;24.30;50.40
25208;DHT22;13153;52.316;21.166;2023-04-24T09:19:37;24.30;51.50
25208;DHT22;13153;52.316;21.166;2023-04-24T09:22:07;24.40;51.30
25208;DHT22;13153;52.316;21.166;2023-04-24T09:24:34;24.50;50.80
25208;DHT22;13153;52.316;21.166;2023-04-24T09:27:01;24.70;51.30
25208;DHT22;13153;52.316;21.166;2023-04-24T09:29:28;25.00;52.20
25208;DHT22;13153;52.316;21.166;2023-04-24T09:31:54;25.10;49.90
25208;DHT22;13153;52.316;21.166;2023-04-24T09:34:25;25.30;49.60
25208;DHT22;13153;52.316;21.166;2023-04-24T09:36:54;25.30;48.50
25208;DHT22;13153;52.316;21.166;2023-04-24T09:39:20;25.20;49.00
25208;DHT22;13153;52.316;21.166;2023-04-24T09:41:54;25.10;50.60
25208;DHT22;13153;52.316;21.166;2023-04-24T09:44:24;25.10;50.80
25208;DHT22;13153;52.316;21.166;2023-04-24T09:46:56;25.10;50.00
25208;DHT22;13153;52.316;21.166;2023-04-24T09:49:25;25.10;51.00
25208;DHT22;13153;52.316;21.166;2023-04-24T09:51:52;25.20;50.30
25208;DHT22;13153;52.316;21.166;2023-04-24T09:54:31;25.20;50.70
25208;DHT22;13153;52.316;21.166;2023-04-24T09:56:58;25.20;51.30
25208;DHT22;13153;52.316;21.166;2023-04-24T09:59:25;25.30;51.50
25208;DHT22;13153;52.316;21.166;2023-04-24T10:01:51;25.30;52.80
25208;DHT22;13153;52.316;21.166;2023-04-24T10:04:23;25.50;50.20
25208;DHT22;13153;52.316;21.166;2023-04-24T10:06:52;25.50;49.70
25208;DHT22;13153;52.316;21.166;2023-04-24T10:09:26;25.60;49.60
25208;DHT22;13153;52.316;21.166;2023-04-24T10:11:53;25.50;50.20
25208;DHT22;13153;52.316;21.166;2023-04-24T10:14:24;25.40;44.70
25208;DHT22;13153;52.316;21.166;2023-04-24T10:16:53;25.30;44.40
25208;DHT22;13153;52.316;21.166;2023-04-24T10:19:20;25.10;44.50
25208;DHT22;13153;52.316;21.166;2023-04-24T10:21:46;25.00;42.70
25208;DHT22;13153;52.316;21.166;2023-04-24T10:24:16;24.80;43.40
25208;DHT22;13153;52.316;21.166;2023-04-24T10:26:44;24.60;44.10
25208;DHT22;13153;52.316;21.166;2023-04-24T10:29:12;24.40;44.50
25208;DHT22;13153;52.316;21.166;2023-04-24T10:31:40;24.30;45.50
25208;DHT22;13153;52.316;21.166;2023-04-24T10:34:08;24.30;45.80
25208;DHT22;13153;52.316;21.166;2023-04-24T10:36:36;24.20;46.30
25208;DHT22;13153;52.316;21.166;2023-04-24T10:39:09;24.10;44.90
25208;DHT22;13153;52.316;21.166;2023-04-24T10:41:38;24.10;46.10
25208;DHT22;13153;52.316;21.166;2023-04-24T10:44:16;24.20;45.80
25208;DHT22;13153;52.316;21.166;2023-04-24T10:46:46;24.20;46.50
25208;DHT22;13153;52.316;21.166;2023-04-24T10:49:28;24.40;46.30
25208;DHT22;13153;52.316;21.166;2023-04-24T10:52:00;24.40;44.00
25208;DHT22;13153;52.316;21.166;2023-04-24T10:54:29;24.30;44.70
25208;DHT22;13153;52.316;21.166;2023-04-24T11:00:14;24.30;47.10
25208;DHT22;13153;52.316;21.166;2023-04-24T11:02:46;24.20;46.70
25208;DHT22;13153;52.316;21.166;2023-04-24T11:05:18;24.30;47.30
25208;DHT22;13153;52.316;21.166;2023-04-24T11:10:46;24.20;47.10
25208;DHT22;13153;52.316;21.166;2023-04-24T11:13:17;24.20;50.10
25208;DHT22;13153;52.316;21.166;2023-04-24T11:16:14;24.10;46.70
25208;DHT22;13153;52.316;21.166;2023-04-24T11:18:59;23.90;46.90
25208;DHT22;13153;52.316;21.166;2023-04-24T11:21:46;23.70;49.90
25208;DHT22;13153;52.316;21.166;2023-04-24T11:32:15;22.60;55.10
25208;DHT22;13153;52.316;21.166;2023-04-24T11:34:49;22.40;55.30
25208;DHT22;13153;52.316;21.166;2023-04-24T11:37:16;22.00;49.20
25208;DHT22;13153;52.316;21.166;2023-04-24T11:39:42;21.70;52.20
25208;DHT22;13153;52.316;21.166;2023-04-24T11:42:14;21.40;55.10
25208;DHT22;13153;52.316;21.166;2023-04-24T11:44:42;21.30;57.00
25208;DHT22;13153;52.316;21.166;2023-04-24T11:47:08;21.10;53.80
25208;DHT22;13153;52.316;21.166;2023-04-24T11:49:36;21.00;53.40
25208;DHT22;13153;52.316;21.166;2023-04-24T11:52:03;21.00;55.40
25208;DHT22;13153;52.316;21.166;2023-04-24T11:54:30;21.00;57.70
25208;DHT22;13153;52.316;21.166;2023-04-24T11:56:56;21.00;57.80
25208;DHT22;13153;52.316;21.166;2023-04-24T11:59:23;21.00;58.70
25208;DHT22;13153;52.316;21.166;2023-04-24T12:01:49;21.00;59.90
25208;DHT22;13153;52.316;21.166;2023-04-24T12:04:17;21.00;60.20
25208;DHT22;13153;52.316;21.166;2023-04-24T12:07:02;20.90;59.50
25208;DHT22;13153;52.316;21.166;2023-04-24T12:09:28;21.00;60.10
25208;DHT22;13153;52.316;21.166;2023-04-24T12:11:57;20.90;61.90
25208;DHT22;13153;52.316;21.166;2023-04-24T12:14:23;20.90;63.00
25208;DHT22;13153;52.316;21.166;2023-04-24T12:16:52;20.90;60.10
25208;DHT22;13153;52.316;21.166;2023-04-24T12:19:21;20.90;62.30
25208;DHT22;13153;52.316;21.166;2023-04-24T12:22:04;21.00;62.70
25208;DHT22;13153;52.316;21.166;2023-04-24T12:24:31;21.00;59.30
25208;DHT22;13153;52.316;21.166;2023-04-24T12:27:00;21.10;58.70
25208;DHT22;13153;52.316;21.166;2023-04-24T12:29:26;21.10;60.10
25208;DHT22;13153;52.316;21.166;2023-04-24T12:31:52;21.00;58.50
25208;DHT22;13153;52.316;21.166;2023-04-24T12:34:20;21.00;61.20
25208;DHT22;13153;52.316;21.166;2023-04-24T12:36:48;21.00;62.80
25208;DHT22;13153;52.316;21.166;2023-04-24T12:39:18;21.00;62.40
25208;DHT22;13153;52.316;21.166;2023-04-24T12:41:57;20.90;60.10
25208;DHT22;13153;52.316;21.166;2023-04-24T12:44:31;20.90;61.20
25208;DHT22;13153;52.316;21.166;2023-04-24T12:47:00;20.80;63.20
25208;DHT22;13153;52.316;21.166;2023-04-24T12:49:27;20.70;62.70
25208;DHT22;13153;52.316;21.166;2023-04-24T12:51:55;20.60;64.20
25208;DHT22;13153;52.316;21.166;2023-04-24T12:54:22;20.60;61.00
25208;DHT22;13153;52.316;21.166;2023-04-24T12:56:47;20.70;59.60
25208;DHT22;13153;52.316;21.166;2023-04-24T12:59:13;20.80;59.80
25208;DHT22;13153;52.316;21.166;2023-04-24T13:01:40;20.90;59.90
25208;DHT22;13153;52.316;21.166;2023-04-24T13:04:06;20.90;60.20
25208;DHT22;13153;52.316;21.166;2023-04-24T13:06:32;21.00;58.10
25208;DHT22;13153;52.316;21.166;2023-04-24T13:08:58;21.10;57.70
25208;DHT22;13153;52.316;21.166;2023-04-24T13:11:24;21.20;53.90
25208;DHT22;13153;52.316;21.166;2023-04-24T13:13:50;21.30;54.80
25208;DHT22;13153;52.316;21.166;2023-04-24T13:16:16;21.40;56.50
25208;DHT22;13153;52.316;21.166;2023-04-24T13:18:41;21.50;58.10
25208;DHT22;13153;52.316;21.166;2023-04-24T13:21:07;21.60;58.60
25208;DHT22;13153;52.316;21.166;2023-04-24T13:23:33;21.60;59.20
25208;DHT22;13153;52.316;21.166;2023-04-24T13:25:59;21.60;60.70
25208;DHT22;13153;52.316;21.166;2023-04-24T13:28:26;21.60;61.00
25208;DHT22;13153;52.316;21.166;2023-04-24T13:30:53;21.50;59.50
25208;DHT22;13153;52.316;21.166;2023-04-24T13:33:18;21.40;59.60
25208;DHT22;13153;52.316;21.166;2023-04-24T13:35:44;21.30;60.70
25208;DHT22;13153;52.316;21.166;2023-04-24T13:38:10;21.30;64.30
25208;DHT22;13153;52.316;21.166;2023-04-24T13:40:36;21.30;65.40
25208;DHT22;13153;52.316;21.166;2023-04-24T13:43:02;21.10;59.80
25208;DHT22;13153;52.316;21.166;2023-04-24T13:45:28;21.10;60.60
25208;DHT22;13153;52.316;21.166;2023-04-24T13:47:54;21.00;59.20
25208;DHT22;13153;52.316;21.166;2023-04-24T13:50:20;21.00;60.20
25208;DHT22;13153;52.316;21.166;2023-04-24T13:52:46;21.00;60.90
25208;DHT22;13153;52.316;21.166;2023-04-24T13:55:12;20.90;59.30
25208;DHT22;13153;52.316;21.166;2023-04-24T13:57:37;20.90;60.10
25208;DHT22;13153;52.316;21.166;2023-04-24T14:00:04;20.80;61.40
25208;DHT22;13153;52.316;21.166;2023-04-24T14:02:31;20.80;64.40
25208;DHT22;13153;52.316;21.166;2023-04-24T14:04:57;20.80;66.50
25208;DHT22;13153;52.316;21.166;2023-04-24T14:07:23;20.70;68.00
25208;DHT22;13153;52.316;21.166;2023-04-24T14:09:48;20.70;65.30
25208;DHT22;13153;52.316;21.166;2023-04-24T14:12:15;20.60;62.80
25208;DHT22;13153;52.316;21.166;2023-04-24T14:14:45;20.50;62.10
25208;DHT22;13153;52.316;21.166;2023-04-24T14:17:12;20.50;62.50
25208;DHT22;13153;52.316;21.166;2023-04-24T14:19:38;20.50;62.80
25208;DHT22;13153;52.316;21.166;2023-04-24T14:22:04;20.50;61.90
25208;DHT22;13153;52.316;21.166;2023-04-24T14:24:29;20.50;62.50
25208;DHT22;13153;52.316;21.166;2023-04-24T14:26:55;20.60;61.80
25208;DHT22;13153;52.316;21.166;2023-04-24T14:29:21;20.60;61.20
25208;DHT22;13153;52.316;21.166;2023-04-24T14:31:47;20.70;59.60
25208;DHT22;13153;52.316;21.166;2023-04-24T14:34:14;20.70;58.80
25208;DHT22;13153;52.316;21.166;2023-04-24T14:36:40;20.70;59.30
25208;DHT22;13153;52.316;21.166;2023-04-24T14:39:07;20.80;59.50
25208;DHT22;13153;52.316;21.166;2023-04-24T14:41:33;20.80;59.50
25208;DHT22;13153;52.316;21.166;2023-04-24T14:44:01;20.90;58.00
25208;DHT22;13153;52.316;21.166;2023-04-24T14:46:28;20.90;57.90
25208;DHT22;13153;52.316;21.166;2023-04-24T14:48:58;21.00;57.10
25208;DHT22;13153;52.316;21.166;2023-04-24T14:51:24;21.00;56.60
25208;DHT22;13153;52.316;21.166;2023-04-24T14:53:51;21.00;56.80
25208;DHT22;13153;52.316;21.166;2023-04-24T14:56:17;21.10;56.50
25208;DHT22;13153;52.316;21.166;2023-04-24T14:58:43;21.10;57.40
25208;DHT22;13153;52.316;21.166;2023-04-24T15:01:08;21.10;57.70
25208;DHT22;13153;52.316;21.166;2023-04-24T15:03:34;21.20;56.60
25208;DHT22;13153;52.316;21.166;2023-04-24T15:06:00;21.20;56.70
25208;DHT22;13153;52.316;21.166;2023-04-24T15:08:26;21.20;55.50
25208;DHT22;13153;52.316;21.166;2023-04-24T15:10:52;21.10;56.00
25208;DHT22;13153;52.316;21.166;2023-04-24T15:13:18;21.10;56.20
25208;DHT22;13153;52.316;21.166;2023-04-24T15:15:46;21.10;56.10
25208;DHT22;13153;52.316;21.166;2023-04-24T15:18:12;21.10;56.10
25208;DHT22;13153;52.316;21.166;2023-04-24T15:20:38;21.10;55.30
25208;DHT22;13153;52.316;21.166;2023-04-24T15:23:05;21.10;55.20
25208;DHT22;13153;52.316;21.166;2023-04-24T15:25:33;21.10;55.60
25208;DHT22;13153;52.316;21.166;2023-04-24T15:27:58;21.10;55.60